createdAt,value
2023-12-15T00:00:53.272Z,95372.00
2023-12-15T00:01:53.293Z,95372.00
2023-12-15T00:02:53.309Z,95372.00
2023-12-15T00:03:53.403Z,95375.00
2023-12-15T00:04:53.453Z,95375.00
2023-12-15T00:05:53.485Z,95377.00
2023-12-15T00:06:53.524Z,95379.00
2023-12-15T00:07:53.603Z,95382.00
2023-12-15T00:08:53.588Z,95383.00
2023-12-15T00:09:53.630Z,95384.00
2023-12-15T00:10:53.725Z,95386.00
2023-12-15T00:11:53.725Z,95391.00
2023-12-15T00:12:53.795Z,95394.00
2023-12-15T00:13:53.860Z,95395.00
2023-12-15T00:14:53.869Z,95396.00
2023-12-15T00:15:53.947Z,95397.00
2023-12-15T00:16:54.014Z,95399.00
2023-12-15T00:17:54.186Z,95398.00
2023-12-15T00:18:54.171Z,95396.00
2023-12-15T00:19:54.149Z,95400.00
2023-12-15T00:20:54.154Z,95400.00
2023-12-15T00:21:54.222Z,95402.00
2023-12-15T00:22:54.266Z,95402.00
2023-12-15T00:23:54.311Z,95406.00
2023-12-15T00:24:54.394Z,95405.00
2023-12-15T00:25:54.442Z,95404.00
2023-12-15T00:26:54.480Z,95405.00
2023-12-15T00:27:54.516Z,95406.00
2023-12-15T00:28:54.609Z,95408.00
2023-12-15T00:29:54.620Z,95406.00
2023-12-15T00:30:54.724Z,95404.00
2023-12-15T00:31:54.766Z,95406.00
2023-12-15T00:32:54.875Z,95407.00
2023-12-15T00:33:54.922Z,95409.00
2023-12-15T00:34:54.924Z,95406.00
2023-12-15T00:35:54.939Z,95404.00
2023-12-15T00:36:55.015Z,95407.00
2023-12-15T00:37:55.060Z,95407.00
2023-12-15T00:38:55.103Z,95409.00
2023-12-15T00:39:55.149Z,95407.00
2023-12-15T00:40:55.197Z,95406.00
2023-12-15T00:41:55.257Z,95407.00
2023-12-15T00:42:55.328Z,95411.00
2023-12-15T00:43:55.430Z,95413.00
2023-12-15T00:44:55.419Z,95413.00
2023-12-15T00:45:55.476Z,95411.00
2023-12-15T00:46:55.530Z,95413.00
2023-12-15T00:47:55.621Z,95414.00
2023-12-15T00:48:55.699Z,95417.00
2023-12-15T00:49:55.777Z,95417.00
2023-12-15T00:50:55.735Z,95417.00
2023-12-15T00:51:55.811Z,95417.00
2023-12-15T00:52:55.886Z,95417.00
2023-12-15T00:53:55.891Z,95416.00
2023-12-15T00:54:55.962Z,95420.00
2023-12-15T00:55:56.084Z,95420.00
2023-12-15T00:56:56.060Z,95420.00
2023-12-15T00:57:56.129Z,95419.00
2023-12-15T00:58:56.193Z,95422.00
2023-12-15T00:59:56.213Z,95422.00
2023-12-15T01:00:56.348Z,95425.00
2023-12-15T01:01:56.420Z,95426.00
2023-12-15T01:02:56.446Z,95429.00
2023-12-15T01:03:56.444Z,95429.00
2023-12-15T01:04:56.579Z,95428.00
2023-12-15T01:05:56.653Z,95431.00
2023-12-15T01:06:56.609Z,95434.00
2023-12-15T01:07:56.709Z,95436.00
2023-12-15T01:08:56.731Z,95440.00
2023-12-15T01:09:56.773Z,95439.00
2023-12-15T01:10:56.866Z,95442.00
2023-12-15T01:11:56.889Z,95445.00
2023-12-15T01:12:56.936Z,95448.00
2023-12-15T01:13:56.993Z,95453.00
2023-12-15T01:14:57.039Z,95454.00
2023-12-15T01:15:57.118Z,95456.00
2023-12-15T01:16:57.203Z,95457.00
2023-12-15T01:17:57.903Z,95457.00
2023-12-15T01:18:57.385Z,95461.00
2023-12-15T01:19:57.412Z,95462.00
2023-12-15T01:20:57.394Z,95466.00
2023-12-15T01:21:57.450Z,95468.00
2023-12-15T01:22:57.524Z,95470.00
2023-12-15T01:23:57.636Z,95469.00
2023-12-15T01:24:57.639Z,95469.00
2023-12-15T01:25:57.728Z,95470.00
2023-12-15T01:26:57.715Z,95472.00
2023-12-15T01:27:57.806Z,95472.00
2023-12-15T01:28:57.835Z,95475.00
2023-12-15T01:29:57.883Z,95476.00
2023-12-15T01:30:58.036Z,95474.00
2023-12-15T01:31:58.013Z,95476.00
2023-12-15T01:32:58.105Z,95479.00
2023-12-15T01:33:58.207Z,95477.00
2023-12-15T01:34:58.274Z,95479.00
2023-12-15T01:35:58.250Z,95482.00
2023-12-15T01:36:58.318Z,95482.00
2023-12-15T01:37:58.403Z,95483.00
2023-12-15T01:38:58.431Z,95485.00
2023-12-15T01:39:58.490Z,95486.00
2023-12-15T01:40:58.611Z,95485.00
2023-12-15T01:41:58.615Z,95484.00
2023-12-15T01:42:58.669Z,95484.00
2023-12-15T01:43:58.785Z,95483.00
2023-12-15T01:44:58.789Z,95485.00
2023-12-15T01:46:05.382Z,95486.00
2023-12-15T01:46:59.919Z,95483.00
2023-12-15T01:47:58.966Z,95485.00
2023-12-15T01:48:58.929Z,95482.00
2023-12-15T01:49:58.875Z,95482.00
2023-12-15T01:50:58.862Z,95483.00
2023-12-15T01:51:58.863Z,95483.00
2023-12-15T01:52:58.895Z,95486.00
2023-12-15T01:53:58.871Z,95487.00
2023-12-15T01:54:58.873Z,95491.00
2023-12-15T01:55:58.917Z,95492.00
2023-12-15T01:56:58.952Z,95495.00
2023-12-15T01:57:59.055Z,95495.00
2023-12-15T01:58:59.111Z,95494.00
2023-12-15T01:59:59.121Z,95496.00
2023-12-15T02:00:59.240Z,95495.00
2023-12-15T02:01:59.251Z,95498.00
2023-12-15T02:02:59.325Z,95500.00
2023-12-15T02:03:59.415Z,95502.00
2023-12-15T02:04:59.481Z,95504.00
2023-12-15T02:05:59.543Z,95505.00
2023-12-15T02:06:59.563Z,95505.00
2023-12-15T02:07:59.649Z,95507.00
2023-12-15T02:08:59.675Z,95509.00
2023-12-15T02:09:59.732Z,95507.00
2023-12-15T02:10:59.844Z,95511.00
2023-12-15T02:11:59.909Z,95511.00
2023-12-15T02:13:00.447Z,95512.00
2023-12-15T02:14:00.024Z,95516.00
2023-12-15T02:15:00.048Z,95513.00
2023-12-15T02:16:00.133Z,95515.00
2023-12-15T02:17:00.202Z,95515.00
2023-12-15T02:18:00.405Z,95517.00
2023-12-15T02:19:00.344Z,95521.00
2023-12-15T02:20:00.475Z,95521.00
2023-12-15T02:21:00.403Z,95523.00
2023-12-15T02:22:00.502Z,95522.00
2023-12-15T02:23:00.786Z,95522.00
2023-12-15T02:24:00.628Z,95523.00
2023-12-15T02:25:00.678Z,95523.00
2023-12-15T02:26:00.779Z,95524.00
2023-12-15T02:27:00.814Z,95525.00
2023-12-15T02:28:00.893Z,95526.00
2023-12-15T02:29:00.969Z,95528.00
2023-12-15T02:30:01.003Z,95530.00
2023-12-15T02:31:01.079Z,95528.00
2023-12-15T02:32:01.233Z,95528.00
2023-12-15T02:33:01.315Z,95530.00
2023-12-15T02:34:01.374Z,95528.00
2023-12-15T02:35:01.361Z,95526.00
2023-12-15T02:36:01.403Z,95526.00
2023-12-15T02:37:01.462Z,95525.00
2023-12-15T02:38:01.572Z,95527.00
2023-12-15T02:39:01.583Z,95529.00
2023-12-15T02:40:01.663Z,95532.00
2023-12-15T02:41:01.788Z,95530.00
2023-12-15T02:42:01.789Z,95530.00
2023-12-15T02:43:01.863Z,95530.00
2023-12-15T02:44:01.957Z,95533.00
2023-12-15T02:45:02.006Z,95534.00
2023-12-15T02:46:02.086Z,95534.00
2023-12-15T02:47:02.195Z,95535.00
2023-12-15T02:48:02.318Z,95537.00
2023-12-15T02:49:02.371Z,95543.00
2023-12-15T02:50:02.374Z,95544.00
2023-12-15T02:51:02.382Z,95544.00
2023-12-15T02:52:02.449Z,95546.00
2023-12-15T02:53:02.546Z,95543.00
2023-12-15T02:54:02.593Z,95546.00
2023-12-15T02:55:02.695Z,95546.00
2023-12-15T02:56:02.777Z,95548.00
2023-12-15T02:57:02.802Z,95548.00
2023-12-15T02:58:02.882Z,95547.00
2023-12-15T02:59:02.992Z,95552.00
2023-12-15T03:00:02.990Z,95555.00
2023-12-15T03:01:03.115Z,95556.00
2023-12-15T03:02:03.102Z,95558.00
2023-12-15T03:03:03.246Z,95557.00
2023-12-15T03:04:03.248Z,95560.00
2023-12-15T03:05:03.407Z,95562.00
2023-12-15T03:06:03.342Z,95562.00
2023-12-15T03:07:03.389Z,95563.00
2023-12-15T03:08:03.488Z,95564.00
2023-12-15T03:09:03.507Z,95562.00
2023-12-15T03:10:03.547Z,95563.00
2023-12-15T03:11:03.629Z,95564.00
2023-12-15T03:12:03.633Z,95561.00
2023-12-15T03:13:03.674Z,95563.00
2023-12-15T03:14:03.758Z,95563.00
2023-12-15T03:15:03.782Z,95566.00
2023-12-15T03:16:03.832Z,95567.00
2023-12-15T03:17:03.929Z,95569.00
2023-12-15T03:18:04.016Z,95569.00
2023-12-15T03:19:04.006Z,95570.00
2023-12-15T03:20:04.030Z,95570.00
2023-12-15T03:21:04.044Z,95573.00
2023-12-15T03:22:04.097Z,95576.00
2023-12-15T03:23:04.185Z,95577.00
2023-12-15T03:24:04.177Z,95574.00
2023-12-15T03:25:04.229Z,95577.00
2023-12-15T03:26:04.314Z,95578.00
2023-12-15T03:27:04.374Z,95580.00
2023-12-15T03:28:04.384Z,95579.00
2023-12-15T03:29:04.486Z,95580.00
2023-12-15T03:30:04.485Z,95582.00
2023-12-15T03:31:04.604Z,95585.00
2023-12-15T03:32:04.730Z,95587.00
2023-12-15T03:33:04.820Z,95584.00
2023-12-15T03:34:04.648Z,95584.00
2023-12-15T03:35:04.710Z,95585.00
2023-12-15T03:36:04.717Z,95584.00
2023-12-15T03:37:04.769Z,95582.00
2023-12-15T03:38:04.900Z,95584.00
2023-12-15T03:39:04.864Z,95586.00
2023-12-15T03:40:04.917Z,95588.00
2023-12-15T03:41:04.987Z,95589.00
2023-12-15T03:42:04.999Z,95592.00
2023-12-15T03:43:05.086Z,95594.00
2023-12-15T03:44:05.257Z,95595.00
2023-12-15T03:45:05.165Z,95597.00
2023-12-15T03:46:05.201Z,95599.00
2023-12-15T03:47:05.280Z,95598.00
2023-12-15T03:48:05.365Z,95599.00
2023-12-15T03:49:05.428Z,95600.00
2023-12-15T03:50:05.442Z,95602.00
2023-12-15T03:51:05.460Z,95602.00
2023-12-15T03:52:05.481Z,95607.00
2023-12-15T03:53:05.612Z,95609.00
2023-12-15T03:54:05.613Z,95609.00
2023-12-15T03:55:05.651Z,95610.00
2023-12-15T03:56:05.786Z,95614.00
2023-12-15T03:57:05.742Z,95616.00
2023-12-15T03:58:05.804Z,95618.00
2023-12-15T03:59:05.883Z,95618.00
2023-12-15T04:00:06.777Z,95620.00
2023-12-15T04:01:06.017Z,95620.00
2023-12-15T04:02:08.683Z,95622.00
2023-12-15T04:03:06.014Z,95624.00
2023-12-15T04:04:06.006Z,95625.00
2023-12-15T04:05:06.070Z,95625.00
2023-12-15T04:06:06.132Z,95626.00
2023-12-15T04:07:06.012Z,95628.00
2023-12-15T04:08:06.041Z,95629.00
2023-12-15T04:09:06.038Z,95630.00
2023-12-15T04:10:06.006Z,95631.00
2023-12-15T04:11:06.141Z,95633.00
2023-12-15T04:12:06.019Z,95633.00
2023-12-15T04:13:06.014Z,95632.00
2023-12-15T04:14:06.071Z,95632.00
2023-12-15T04:15:06.088Z,95636.00
2023-12-15T04:16:06.024Z,95636.00
2023-12-15T04:17:06.119Z,95637.00
2023-12-15T04:18:06.458Z,95639.00
2023-12-15T04:19:06.190Z,95639.00
2023-12-15T04:20:06.082Z,95640.00
2023-12-15T04:21:06.036Z,95643.00
2023-12-15T04:22:06.033Z,95646.00
2023-12-15T04:23:06.082Z,95646.00
2023-12-15T04:24:06.054Z,95648.00
2023-12-15T04:25:06.069Z,95650.00
2023-12-15T04:26:06.068Z,95649.00
2023-12-15T04:27:06.052Z,95652.00
2023-12-15T04:28:06.061Z,95653.00
2023-12-15T04:29:06.079Z,95652.00
2023-12-15T04:30:06.100Z,95653.00
2023-12-15T04:31:06.036Z,95654.00
2023-12-15T04:32:06.062Z,95656.00
2023-12-15T04:33:06.123Z,95659.00
2023-12-15T04:34:06.063Z,95662.00
2023-12-15T04:35:06.067Z,95663.00
2023-12-15T04:36:13.302Z,95662.00
2023-12-15T04:37:13.310Z,95665.00
2023-12-15T04:38:13.377Z,95664.00
2023-12-15T04:39:13.304Z,95664.00
2023-12-15T04:40:13.307Z,95666.00
2023-12-15T04:41:13.345Z,95667.00
2023-12-15T04:42:13.334Z,95669.00
2023-12-15T04:43:13.317Z,95671.00
2023-12-15T04:44:13.416Z,95671.00
2023-12-15T04:45:13.326Z,95677.00
2023-12-15T04:46:13.339Z,95678.00
2023-12-15T04:47:13.348Z,95679.00
2023-12-15T04:48:13.350Z,95681.00
2023-12-15T04:49:13.364Z,95684.00
2023-12-15T04:50:13.344Z,95684.00
2023-12-15T04:51:13.327Z,95685.00
2023-12-15T04:52:13.365Z,95686.00
2023-12-15T04:53:13.372Z,95690.00
2023-12-15T04:54:13.335Z,95691.00
2023-12-15T04:55:13.385Z,95694.00
2023-12-15T04:56:13.370Z,95693.00
2023-12-15T04:57:13.337Z,95691.00
2023-12-15T04:58:13.342Z,95694.00
2023-12-15T04:59:13.626Z,95696.00
2023-12-15T05:00:13.364Z,95697.00
2023-12-15T05:01:13.392Z,95699.00
2023-12-15T05:02:13.360Z,95699.00
2023-12-15T05:03:13.436Z,95701.00
2023-12-15T05:04:13.381Z,95704.00
2023-12-15T05:05:13.439Z,95703.00
2023-12-15T05:06:13.489Z,95704.00
2023-12-15T05:07:13.496Z,95705.00
2023-12-15T05:08:13.513Z,95706.00
2023-12-15T05:09:13.555Z,95706.00
2023-12-15T05:10:13.672Z,95705.00
2023-12-15T05:11:13.620Z,95704.00
2023-12-15T05:12:13.619Z,95710.00
2023-12-15T05:13:13.638Z,95710.00
2023-12-15T05:14:13.726Z,95714.00
2023-12-15T05:15:13.701Z,95717.00
2023-12-15T05:16:13.757Z,95718.00
2023-12-15T05:17:13.839Z,95719.00
2023-12-15T05:18:13.908Z,95722.00
2023-12-15T05:19:13.809Z,95720.00
2023-12-15T05:20:13.832Z,95721.00
2023-12-15T05:21:13.857Z,95721.00
2023-12-15T05:22:13.879Z,95720.00
2023-12-15T05:23:13.884Z,95725.00
2023-12-15T05:24:13.888Z,95725.00
2023-12-15T05:25:13.911Z,95728.00
2023-12-15T05:26:13.990Z,95728.00
2023-12-15T05:27:13.949Z,95731.00
2023-12-15T05:28:13.990Z,95732.00
2023-12-15T05:29:14.051Z,95734.00
2023-12-15T05:30:14.038Z,95733.00
2023-12-15T05:31:14.006Z,95735.00
2023-12-15T05:32:14.097Z,95737.00
2023-12-15T05:33:14.186Z,95737.00
2023-12-15T05:34:14.297Z,95737.00
2023-12-15T05:35:14.122Z,95736.00
2023-12-15T05:36:14.072Z,95737.00
2023-12-15T05:37:14.256Z,95741.00
2023-12-15T05:38:14.191Z,95740.00
2023-12-15T05:39:14.151Z,95743.00
2023-12-15T05:40:14.144Z,95741.00
2023-12-15T05:41:14.196Z,95745.00
2023-12-15T05:42:14.156Z,95747.00
2023-12-15T05:43:14.177Z,95749.00
2023-12-15T05:44:14.227Z,95753.00
2023-12-15T05:45:14.218Z,95755.00
2023-12-15T05:46:14.218Z,95758.00
2023-12-15T05:47:14.297Z,95761.00
2023-12-15T05:48:14.655Z,95763.00
2023-12-15T05:49:14.519Z,95762.00
2023-12-15T05:50:14.444Z,95761.00
2023-12-15T05:51:14.344Z,95762.00
2023-12-15T05:52:14.316Z,95764.00
2023-12-15T05:53:14.377Z,95764.00
2023-12-15T05:54:14.354Z,95766.00
2023-12-15T05:55:14.355Z,95768.00
2023-12-15T05:56:14.391Z,95767.00
2023-12-15T05:57:15.021Z,95769.00
2023-12-15T05:58:14.407Z,95770.00
2023-12-15T05:59:14.423Z,95772.00
2023-12-15T06:00:14.389Z,95773.00
2023-12-15T06:01:14.432Z,95773.00
2023-12-15T06:02:14.444Z,95777.00
2023-12-15T06:03:14.496Z,95781.00
2023-12-15T06:04:14.436Z,95783.00
2023-12-15T06:05:14.575Z,95785.00
2023-12-15T06:06:14.596Z,95785.00
2023-12-15T06:07:14.489Z,95787.00
2023-12-15T06:08:14.559Z,95789.00
2023-12-15T06:09:14.513Z,95789.00
2023-12-15T06:10:14.508Z,95794.00
2023-12-15T06:11:14.571Z,95798.00
2023-12-15T06:12:14.521Z,95799.00
2023-12-15T06:13:14.537Z,95803.00
2023-12-15T06:14:14.570Z,95804.00
2023-12-15T06:15:14.650Z,95807.00
2023-12-15T06:16:14.561Z,95809.00
2023-12-15T06:17:14.594Z,95812.00
2023-12-15T06:18:14.660Z,95811.00
2023-12-15T06:19:14.713Z,95814.00
2023-12-15T06:20:14.738Z,95817.00
2023-12-15T06:21:14.581Z,95817.00
2023-12-15T06:22:14.594Z,95818.00
2023-12-15T06:23:14.731Z,95820.00
2023-12-15T06:24:14.660Z,95822.00
2023-12-15T06:25:14.652Z,95825.00
2023-12-15T06:26:14.606Z,95825.00
2023-12-15T06:27:14.605Z,95828.00
2023-12-15T06:28:14.638Z,95830.00
2023-12-15T06:29:14.751Z,95829.00
2023-12-15T06:30:14.656Z,95831.00
2023-12-15T06:31:14.625Z,95832.00
2023-12-15T06:32:14.734Z,95833.00
2023-12-15T06:33:14.702Z,95836.00
2023-12-15T06:34:14.797Z,95838.00
2023-12-15T06:35:14.719Z,95841.00
2023-12-15T06:36:14.662Z,95845.00
2023-12-15T06:37:14.718Z,95848.00
2023-12-15T06:38:15.036Z,95855.00
2023-12-15T06:39:14.705Z,95858.00
2023-12-15T06:40:14.713Z,95860.00
2023-12-15T06:41:14.732Z,95864.00
2023-12-15T06:42:14.787Z,95864.00
2023-12-15T06:43:14.825Z,95867.00
2023-12-15T06:44:14.932Z,95872.00
2023-12-15T06:45:14.984Z,95872.00
2023-12-15T06:46:14.982Z,95874.00
2023-12-15T06:47:15.116Z,95879.00
2023-12-15T06:48:15.281Z,95880.00
2023-12-15T06:49:17.967Z,95881.00
2023-12-15T06:50:15.219Z,95884.00
2023-12-15T06:51:15.171Z,95885.00
2023-12-15T06:52:15.171Z,95887.00
2023-12-15T06:53:15.199Z,95883.00
2023-12-15T06:54:15.174Z,95888.00
2023-12-15T06:55:15.167Z,95888.00
2023-12-15T06:56:15.214Z,95892.00
2023-12-15T06:57:15.200Z,95896.00
2023-12-15T06:58:15.270Z,95898.00
2023-12-15T06:59:15.237Z,95899.00
2023-12-15T07:00:15.211Z,95901.00
2023-12-15T07:01:15.352Z,95904.00
2023-12-15T07:02:15.348Z,95907.00
2023-12-15T07:03:15.249Z,95910.00
2023-12-15T07:04:15.338Z,95911.00
2023-12-15T07:05:15.251Z,95916.00
2023-12-15T07:06:15.241Z,95917.00
2023-12-15T07:07:15.190Z,95914.00
2023-12-15T07:08:15.222Z,95914.00
2023-12-15T07:09:17.192Z,95914.00
2023-12-15T07:10:15.192Z,95918.00
2023-12-15T07:11:15.236Z,95921.00
2023-12-15T07:12:15.204Z,95923.00
2023-12-15T07:13:15.191Z,95926.00
2023-12-15T07:14:15.237Z,95927.00
2023-12-15T07:15:15.185Z,95930.00
2023-12-15T07:16:15.185Z,95932.00
2023-12-15T07:17:15.251Z,95934.00
2023-12-15T07:18:15.325Z,95939.00
2023-12-15T07:19:15.250Z,95941.00
2023-12-15T07:20:15.238Z,95941.00
2023-12-15T07:21:15.214Z,95942.00
2023-12-15T07:22:16.675Z,95945.00
2023-12-15T07:23:16.109Z,95949.00
2023-12-15T07:24:15.233Z,95951.00
2023-12-15T07:25:15.193Z,95956.00
2023-12-15T07:26:15.246Z,95959.00
2023-12-15T07:27:15.215Z,95962.00
2023-12-15T07:28:15.232Z,95967.00
2023-12-15T07:29:15.230Z,95970.00
2023-12-15T07:30:15.278Z,95973.00
2023-12-15T07:31:15.219Z,95976.00
2023-12-15T07:32:15.242Z,95977.00
2023-12-15T07:33:15.326Z,95979.00
2023-12-15T07:34:15.373Z,95983.00
2023-12-15T07:35:21.050Z,95988.00
2023-12-15T07:36:16.324Z,95991.00
2023-12-15T07:37:15.232Z,95996.00
2023-12-15T07:38:15.284Z,95998.00
2023-12-15T07:39:15.254Z,96000.00
2023-12-15T07:40:15.242Z,95999.00
2023-12-15T07:41:15.257Z,96000.00
2023-12-15T07:42:15.237Z,96002.00
2023-12-15T07:43:15.278Z,96003.00
2023-12-15T07:44:15.255Z,96005.00
2023-12-15T07:45:15.226Z,96008.00
2023-12-15T07:46:15.236Z,96011.00
2023-12-15T07:47:15.280Z,96013.00
2023-12-15T07:48:15.342Z,96015.00
2023-12-15T07:49:15.288Z,96018.00
2023-12-15T07:50:15.293Z,96022.00
2023-12-15T07:51:15.275Z,96025.00
2023-12-15T07:52:15.248Z,96027.00
2023-12-15T07:53:15.317Z,96029.00
2023-12-15T07:54:15.526Z,96029.00
2023-12-15T07:55:15.286Z,96031.00
2023-12-15T07:56:15.323Z,96029.00
2023-12-15T07:57:15.286Z,96030.00
2023-12-15T07:58:15.291Z,96032.00
2023-12-15T07:59:16.376Z,96036.00
2023-12-15T08:00:15.290Z,96037.00
2023-12-15T08:01:15.332Z,96037.00
2023-12-15T08:02:15.432Z,96042.00
2023-12-15T08:03:15.388Z,96043.00
2023-12-15T08:04:15.529Z,96048.00
2023-12-15T08:05:15.488Z,96048.00
2023-12-15T08:06:15.445Z,96044.00
2023-12-15T08:07:15.396Z,96049.00
2023-12-15T08:08:15.450Z,96048.00
2023-12-15T08:09:15.451Z,96050.00
2023-12-15T08:10:15.497Z,96050.00
2023-12-15T08:11:15.749Z,96047.00
2023-12-15T08:12:15.621Z,96049.00
2023-12-15T08:13:15.798Z,96051.00
2023-12-15T08:14:15.773Z,96051.00
2023-12-15T08:15:15.834Z,96052.00
2023-12-15T08:16:15.881Z,96054.00
2023-12-15T08:17:15.981Z,96056.00
2023-12-15T08:18:16.140Z,96058.00
2023-12-15T08:19:16.097Z,96059.00
2023-12-15T08:20:16.107Z,96064.00
2023-12-15T08:21:16.119Z,96066.00
2023-12-15T08:22:16.175Z,96067.00
2023-12-15T08:23:16.234Z,96068.00
2023-12-15T08:24:16.267Z,96067.00
2023-12-15T08:25:16.285Z,96071.00
2023-12-15T08:26:16.373Z,96072.00
2023-12-15T08:27:16.345Z,96074.00
2023-12-15T08:28:16.388Z,96076.00
2023-12-15T08:29:16.490Z,96075.00
2023-12-15T08:30:16.468Z,96078.00
2023-12-15T08:31:16.514Z,96082.00
2023-12-15T08:32:16.543Z,96083.00
2023-12-15T08:33:16.621Z,96086.00
2023-12-15T08:34:17.075Z,96087.00
2023-12-15T08:35:16.624Z,96089.00
2023-12-15T08:36:16.624Z,96089.00
2023-12-15T08:37:16.710Z,96090.00
2023-12-15T08:38:16.721Z,96092.00
2023-12-15T08:39:18.117Z,96094.00
2023-12-15T08:40:16.803Z,96094.00
2023-12-15T08:41:16.864Z,96094.00
2023-12-15T08:42:16.916Z,96096.00
2023-12-15T08:43:16.949Z,96100.00
2023-12-15T08:44:24.508Z,96104.00
2023-12-15T08:45:18.115Z,96105.00
2023-12-15T08:46:17.015Z,96106.00
2023-12-15T08:47:17.029Z,96105.00
2023-12-15T08:48:17.138Z,96108.00
2023-12-15T08:49:17.096Z,96108.00
2023-12-15T08:50:17.058Z,96109.00
2023-12-15T08:51:17.010Z,96110.00
2023-12-15T08:52:17.058Z,96113.00
2023-12-15T08:53:17.209Z,96112.00
2023-12-15T08:54:18.039Z,96111.00
2023-12-15T08:55:17.246Z,96112.00
2023-12-15T08:56:17.593Z,96113.00
2023-12-15T08:57:17.519Z,96114.00
2023-12-15T08:58:17.421Z,96117.00
2023-12-15T08:59:17.531Z,96120.00
2023-12-15T09:00:17.627Z,96123.00
2023-12-15T09:01:17.668Z,96124.00
2023-12-15T09:02:17.659Z,96129.00
2023-12-15T09:03:17.689Z,96131.00
2023-12-15T09:04:17.696Z,96134.00
2023-12-15T09:05:30.797Z,96136.00
2023-12-15T09:06:26.521Z,96136.00
2023-12-15T09:07:18.810Z,96138.00
2023-12-15T09:08:17.864Z,96137.00
2023-12-15T09:09:17.749Z,96138.00
2023-12-15T09:10:17.744Z,96139.00
2023-12-15T09:11:17.754Z,96144.00
2023-12-15T09:12:17.722Z,96148.00
2023-12-15T09:13:17.729Z,96155.00
2023-12-15T09:14:17.793Z,96152.00
2023-12-15T09:15:17.733Z,96153.00
2023-12-15T09:16:17.780Z,96154.00
2023-12-15T09:17:17.778Z,96153.00
2023-12-15T09:18:17.789Z,96154.00
2023-12-15T09:19:17.842Z,96155.00
2023-12-15T09:20:17.823Z,96153.00
2023-12-15T09:21:17.764Z,96154.00
2023-12-15T09:22:17.751Z,96151.00
2023-12-15T09:23:17.772Z,96154.00
2023-12-15T09:24:17.776Z,96158.00
2023-12-15T09:25:17.780Z,96156.00
2023-12-15T09:26:17.896Z,96160.00
2023-12-15T09:27:17.786Z,96159.00
2023-12-15T09:28:17.798Z,96162.00
2023-12-15T09:29:18.132Z,96162.00
2023-12-15T09:30:17.811Z,96165.00
2023-12-15T09:31:17.767Z,96163.00
2023-12-15T09:32:17.795Z,96160.00
2023-12-15T09:33:17.833Z,96162.00
2023-12-15T09:34:18.146Z,96162.00
2023-12-15T09:35:17.893Z,96165.00
2023-12-15T09:36:17.863Z,96166.00
2023-12-15T09:37:17.790Z,96167.00
2023-12-15T09:38:17.873Z,96168.00
2023-12-15T09:39:17.872Z,96169.00
2023-12-15T09:40:17.797Z,96167.00
2023-12-15T09:41:17.825Z,96168.00
2023-12-15T09:42:17.795Z,96167.00
2023-12-15T09:43:17.806Z,96169.00
2023-12-15T09:44:18.155Z,96171.00
2023-12-15T09:45:17.870Z,96172.00
2023-12-15T09:46:17.811Z,96172.00
2023-12-15T09:47:17.874Z,96175.00
2023-12-15T09:48:17.962Z,96173.00
2023-12-15T09:49:18.113Z,96174.00
2023-12-15T09:50:18.011Z,96176.00
2023-12-15T09:51:17.804Z,96178.00
2023-12-15T09:52:17.816Z,96178.00
2023-12-15T09:53:17.822Z,96181.00
2023-12-15T09:54:18.072Z,96182.00
2023-12-15T09:55:17.881Z,96185.00
2023-12-15T09:56:18.017Z,96183.00
2023-12-15T09:57:18.063Z,96182.00
2023-12-15T09:58:18.095Z,96182.00
2023-12-15T09:59:18.239Z,96181.00
2023-12-15T10:00:18.251Z,96182.00
2023-12-15T10:01:18.380Z,96182.00
2023-12-15T10:02:18.450Z,96184.00
2023-12-15T10:03:18.530Z,96183.00
2023-12-15T10:04:18.588Z,96182.00
2023-12-15T10:05:18.631Z,96187.00
2023-12-15T10:06:18.689Z,96188.00
2023-12-15T10:07:18.736Z,96188.00
2023-12-15T10:08:18.813Z,96190.00
2023-12-15T10:09:18.886Z,96191.00
2023-12-15T10:10:18.893Z,96192.00
2023-12-15T10:11:19.049Z,96193.00
2023-12-15T10:12:18.994Z,96195.00
2023-12-15T10:13:19.008Z,96194.00
2023-12-15T10:14:18.990Z,96195.00
2023-12-15T10:15:19.032Z,96195.00
2023-12-15T10:16:19.014Z,96197.00
2023-12-15T10:17:19.017Z,96194.00
2023-12-15T10:18:26.551Z,96194.00
2023-12-15T10:19:20.132Z,96194.00
2023-12-15T10:20:19.144Z,96200.00
2023-12-15T10:21:19.051Z,96199.00
2023-12-15T10:22:19.028Z,96200.00
2023-12-15T10:23:19.052Z,96197.00
2023-12-15T10:24:19.056Z,96197.00
2023-12-15T10:25:19.029Z,96199.00
2023-12-15T10:26:19.120Z,96197.00
2023-12-15T10:27:19.031Z,96197.00
2023-12-15T10:28:19.037Z,96195.00
2023-12-15T10:29:19.180Z,96196.00
2023-12-15T10:30:19.148Z,96195.00
2023-12-15T10:31:19.046Z,96196.00
2023-12-15T10:32:19.073Z,96195.00
2023-12-15T10:33:19.134Z,96196.00
2023-12-15T10:34:19.129Z,96197.00
2023-12-15T10:35:19.310Z,96200.00
2023-12-15T10:36:19.218Z,96205.00
2023-12-15T10:37:19.273Z,96205.00
2023-12-15T10:38:19.363Z,96205.00
2023-12-15T10:39:19.414Z,96204.00
2023-12-15T10:40:19.461Z,96205.00
2023-12-15T10:41:19.576Z,96205.00
2023-12-15T10:42:19.566Z,96207.00
2023-12-15T10:43:19.616Z,96209.00
2023-12-15T10:44:19.679Z,96211.00
2023-12-15T10:45:19.711Z,96216.00
2023-12-15T10:46:19.746Z,96216.00
2023-12-15T10:47:19.840Z,96219.00
2023-12-15T10:48:20.028Z,96220.00
2023-12-15T10:49:19.973Z,96221.00
2023-12-15T10:50:19.964Z,96221.00
2023-12-15T10:51:19.905Z,96221.00
2023-12-15T10:52:19.945Z,96226.00
2023-12-15T10:53:19.967Z,96224.00
2023-12-15T10:54:20.122Z,96225.00
2023-12-15T10:55:20.024Z,96227.00
2023-12-15T10:56:20.047Z,96227.00
2023-12-15T10:57:20.040Z,96231.00
2023-12-15T10:58:20.066Z,96229.00
2023-12-15T10:59:20.107Z,96235.00
2023-12-15T11:00:20.088Z,96236.00
2023-12-15T11:01:20.147Z,96238.00
2023-12-15T11:02:20.126Z,96238.00
2023-12-15T11:03:20.182Z,96239.00
2023-12-15T11:04:20.116Z,96242.00
2023-12-15T11:05:29.493Z,96245.00
2023-12-15T11:06:21.243Z,96245.00
2023-12-15T11:07:20.141Z,96246.00
2023-12-15T11:08:20.165Z,96242.00
2023-12-15T11:09:20.147Z,96240.00
2023-12-15T11:10:20.128Z,96240.00
2023-12-15T11:11:20.258Z,96241.00
2023-12-15T11:12:20.169Z,96240.00
2023-12-15T11:13:20.132Z,96241.00
2023-12-15T11:14:20.187Z,96245.00
2023-12-15T11:15:20.147Z,96244.00
2023-12-15T11:16:20.175Z,96242.00
2023-12-15T11:17:20.196Z,96242.00
2023-12-15T11:18:20.453Z,96242.00
2023-12-15T11:19:20.239Z,96242.00
2023-12-15T11:20:20.260Z,96241.00
2023-12-15T11:21:20.180Z,96244.00
2023-12-15T11:22:20.175Z,96241.00
2023-12-15T11:23:20.241Z,96243.00
2023-12-15T11:24:20.611Z,96242.00
2023-12-15T11:25:20.170Z,96243.00
2023-12-15T11:26:20.232Z,96240.00
2023-12-15T11:27:20.182Z,96240.00
2023-12-15T11:28:20.224Z,96245.00
2023-12-15T11:29:20.625Z,96241.00
2023-12-15T11:30:20.206Z,96238.00
2023-12-15T11:31:20.214Z,96233.00
2023-12-15T11:32:20.251Z,96233.00
2023-12-15T11:33:20.683Z,96235.00
2023-12-15T11:34:20.234Z,96232.00
2023-12-15T11:35:20.262Z,96233.00
2023-12-15T11:36:20.190Z,96233.00
2023-12-15T11:37:20.195Z,96235.00
2023-12-15T11:38:20.674Z,96237.00
2023-12-15T11:39:20.640Z,96238.00
2023-12-15T11:40:20.227Z,96240.00
2023-12-15T11:41:20.239Z,96242.00
2023-12-15T11:42:20.232Z,96241.00
2023-12-15T11:43:20.622Z,96243.00
2023-12-15T11:44:20.295Z,96243.00
2023-12-15T11:45:20.332Z,96244.00